sensor_id;sensor_type;location;lat;lon;timestamp;pressure;altitude;pressure_sealevel;temperature;humidity
33280;BME280;20403;43.114;12.434;2023-09-19T00:01:41;99166.94;;;19.48;100.00
33280;BME280;20403;43.114;12.434;2023-09-19T00:04:09;99167.00;;;19.38;100.00
33280;BME280;20403;43.114;12.434;2023-09-19T00:06:36;99171.00;;;19.35;100.00
33280;BME280;20403;43.114;12.434;2023-09-19T00:09:02;99164.63;;;19.36;100.00
33280;BME280;20403;43.114;12.434;2023-09-19T00:11:27;99170.25;;;19.29;100.00
33280;BME280;20403;43.114;12.434;2023-09-19T00:13:54;99163.44;;;19.23;100.00
33280;BME280;20403;43.114;12.434;2023-09-19T00:16:20;99167.41;;;19.21;100.00
33280;BME280;20403;43.114;12.434;2023-09-19T00:18:46;99165.56;;;19.21;100.00
33280;BME280;20403;43.114;12.434;2023-09-19T00:21:12;99164.78;;;19.21;100.00
33280;BME280;20403;43.114;12.434;2023-09-19T00:23:38;99162.41;;;19.19;100.00
33280;BME280;20403;43.114;12.434;2023-09-19T00:26:03;99160.53;;;19.20;100.00
33280;BME280;20403;43.114;12.434;2023-09-19T00:28:29;99159.75;;;19.19;100.00
33280;BME280;20403;43.114;12.434;2023-09-19T00:30:55;99161.06;;;19.22;100.00
33280;BME280;20403;43.114;12.434;2023-09-19T00:33:21;99157.56;;;19.26;100.00
33280;BME280;20403;43.114;12.434;2023-09-19T00:35:51;99163.69;;;19.22;100.00
33280;BME280;20403;43.114;12.434;2023-09-19T00:38:18;99161.63;;;19.19;100.00
33280;BME280;20403;43.114;12.434;2023-09-19T00:40:47;99152.59;;;19.20;100.00
33280;BME280;20403;43.114;12.434;2023-09-19T00:43:12;99145.19;;;19.22;100.00
33280;BME280;20403;43.114;12.434;2023-09-19T00:45:39;99154.47;;;19.19;100.00
33280;BME280;20403;43.114;12.434;2023-09-19T00:48:07;99153.72;;;19.14;100.00
33280;BME280;20403;43.114;12.434;2023-09-19T00:50:35;99152.19;;;19.07;100.00
33280;BME280;20403;43.114;12.434;2023-09-19T00:53:01;99149.03;;;19.05;100.00
33280;BME280;20403;43.114;12.434;2023-09-19T00:55:33;99149.06;;;19.00;100.00
33280;BME280;20403;43.114;12.434;2023-09-19T00:57:59;99141.72;;;18.92;100.00
33280;BME280;20403;43.114;12.434;2023-09-19T01:00:25;99148.28;;;18.95;100.00
33280;BME280;20403;43.114;12.434;2023-09-19T01:02:51;99144.34;;;18.97;100.00
33280;BME280;20403;43.114;12.434;2023-09-19T01:05:16;99143.00;;;18.95;100.00
33280;BME280;20403;43.114;12.434;2023-09-19T01:07:42;99132.22;;;18.91;100.00
33280;BME280;20403;43.114;12.434;2023-09-19T01:10:12;99122.69;;;18.95;100.00
33280;BME280;20403;43.114;12.434;2023-09-19T01:13:05;99121.41;;;18.87;100.00
33280;BME280;20403;43.114;12.434;2023-09-19T01:20:45;99130.97;;;18.73;100.00
33280;BME280;20403;43.114;12.434;2023-09-19T01:31:57;99132.31;;;18.81;100.00
33280;BME280;20403;43.114;12.434;2023-09-19T01:34:26;99138.28;;;18.92;100.00
33280;BME280;20403;43.114;12.434;2023-09-19T01:36:52;99140.88;;;18.97;100.00
33280;BME280;20403;43.114;12.434;2023-09-19T01:39:17;99137.66;;;19.05;100.00
33280;BME280;20403;43.114;12.434;2023-09-19T01:41:54;99135.75;;;19.10;100.00
33280;BME280;20403;43.114;12.434;2023-09-19T01:47:34;99133.41;;;19.09;100.00
33280;BME280;20403;43.114;12.434;2023-09-19T01:52:49;99138.22;;;19.02;100.00
33280;BME280;20403;43.114;12.434;2023-09-19T01:55:20;99142.94;;;19.05;100.00
33280;BME280;20403;43.114;12.434;2023-09-19T02:00:33;99139.06;;;18.92;100.00
33280;BME280;20403;43.114;12.434;2023-09-19T02:03:00;99130.31;;;19.02;100.00
33280;BME280;20403;43.114;12.434;2023-09-19T02:05:27;99124.50;;;18.95;100.00
33280;BME280;20403;43.114;12.434;2023-09-19T02:07:53;99133.31;;;18.85;100.00
33280;BME280;20403;43.114;12.434;2023-09-19T02:10:19;99123.06;;;18.73;100.00
33280;BME280;20403;43.114;12.434;2023-09-19T02:12:44;99127.28;;;18.74;100.00
33280;BME280;20403;43.114;12.434;2023-09-19T02:15:10;99123.91;;;18.63;100.00
33280;BME280;20403;43.114;12.434;2023-09-19T02:17:36;99132.09;;;18.67;100.00
33280;BME280;20403;43.114;12.434;2023-09-19T02:20:02;99130.25;;;18.67;100.00
33280;BME280;20403;43.114;12.434;2023-09-19T02:22:29;99136.88;;;18.65;100.00
33280;BME280;20403;43.114;12.434;2023-09-19T02:24:54;99128.34;;;18.73;100.00
33280;BME280;20403;43.114;12.434;2023-09-19T02:27:23;99122.25;;;18.78;100.00
33280;BME280;20403;43.114;12.434;2023-09-19T02:29:49;99124.66;;;18.74;100.00
33280;BME280;20403;43.114;12.434;2023-09-19T02:32:14;99119.63;;;18.73;100.00
33280;BME280;20403;43.114;12.434;2023-09-19T02:34:40;99110.34;;;18.85;100.00
33280;BME280;20403;43.114;12.434;2023-09-19T02:37:07;99114.50;;;18.92;100.00
33280;BME280;20403;43.114;12.434;2023-09-19T02:39:34;99112.66;;;18.92;100.00
33280;BME280;20403;43.114;12.434;2023-09-19T02:41:59;99113.13;;;18.99;100.00
33280;BME280;20403;43.114;12.434;2023-09-19T02:44:25;99115.97;;;19.08;100.00
33280;BME280;20403;43.114;12.434;2023-09-19T02:46:50;99111.34;;;19.24;100.00
33280;BME280;20403;43.114;12.434;2023-09-19T02:49:16;99109.06;;;19.41;100.00
33280;BME280;20403;43.114;12.434;2023-09-19T02:51:43;99104.31;;;19.38;100.00
33280;BME280;20403;43.114;12.434;2023-09-19T02:54:09;99105.88;;;19.44;100.00
33280;BME280;20403;43.114;12.434;2023-09-19T02:56:36;99112.84;;;19.59;100.00
33280;BME280;20403;43.114;12.434;2023-09-19T02:59:01;99114.47;;;19.84;100.00
33280;BME280;20403;43.114;12.434;2023-09-19T03:01:27;99109.44;;;20.07;100.00
33280;BME280;20403;43.114;12.434;2023-09-19T03:03:53;99116.03;;;20.28;100.00
33280;BME280;20403;43.114;12.434;2023-09-19T03:06:19;99112.34;;;20.48;100.00
33280;BME280;20403;43.114;12.434;2023-09-19T03:08:46;99107.13;;;20.62;100.00
33280;BME280;20403;43.114;12.434;2023-09-19T03:11:12;99110.22;;;20.69;100.00
33280;BME280;20403;43.114;12.434;2023-09-19T03:13:40;99105.31;;;20.76;100.00
33280;BME280;20403;43.114;12.434;2023-09-19T03:16:07;99102.72;;;20.90;100.00
33280;BME280;20403;43.114;12.434;2023-09-19T03:18:35;99100.38;;;20.89;100.00
33280;BME280;20403;43.114;12.434;2023-09-19T03:21:01;99086.56;;;20.73;100.00
33280;BME280;20403;43.114;12.434;2023-09-19T03:23:27;99087.59;;;20.58;100.00
33280;BME280;20403;43.114;12.434;2023-09-19T03:25:54;99088.78;;;20.47;100.00
33280;BME280;20403;43.114;12.434;2023-09-19T03:28:21;99087.25;;;20.22;100.00
33280;BME280;20403;43.114;12.434;2023-09-19T03:31:03;99088.31;;;20.02;100.00
33280;BME280;20403;43.114;12.434;2023-09-19T03:33:29;99084.66;;;19.98;100.00
33280;BME280;20403;43.114;12.434;2023-09-19T03:35:56;99085.78;;;19.91;100.00
33280;BME280;20403;43.114;12.434;2023-09-19T03:38:23;99084.63;;;19.79;100.00
33280;BME280;20403;43.114;12.434;2023-09-19T03:40:49;99081.72;;;19.80;100.00
33280;BME280;20403;43.114;12.434;2023-09-19T03:43:14;99082.25;;;19.77;100.00
33280;BME280;20403;43.114;12.434;2023-09-19T03:45:40;99075.94;;;19.73;100.00
33280;BME280;20403;43.114;12.434;2023-09-19T03:48:09;99074.13;;;19.73;100.00
33280;BME280;20403;43.114;12.434;2023-09-19T03:50:35;99077.28;;;19.76;100.00
33280;BME280;20403;43.114;12.434;2023-09-19T03:53:01;99083.69;;;19.69;100.00
33280;BME280;20403;43.114;12.434;2023-09-19T03:55:27;99077.53;;;19.74;100.00
33280;BME280;20403;43.114;12.434;2023-09-19T03:57:53;99083.69;;;19.69;100.00
33280;BME280;20403;43.114;12.434;2023-09-19T04:00:18;99086.00;;;19.76;100.00
33280;BME280;20403;43.114;12.434;2023-09-19T04:02:52;99087.28;;;19.79;100.00
33280;BME280;20403;43.114;12.434;2023-09-19T04:05:17;99085.41;;;19.79;100.00
33280;BME280;20403;43.114;12.434;2023-09-19T04:07:43;99092.75;;;19.87;100.00
33280;BME280;20403;43.114;12.434;2023-09-19T04:10:09;99101.56;;;19.78;100.00
33280;BME280;20403;43.114;12.434;2023-09-19T04:12:37;99103.59;;;19.62;100.00
33280;BME280;20403;43.114;12.434;2023-09-19T04:15:05;99105.22;;;19.58;100.00
33280;BME280;20403;43.114;12.434;2023-09-19T04:17:30;99104.31;;;19.67;100.00
33280;BME280;20403;43.114;12.434;2023-09-19T04:19:58;99104.69;;;19.56;100.00
33280;BME280;20403;43.114;12.434;2023-09-19T04:22:23;99103.94;;;19.50;100.00
33280;BME280;20403;43.114;12.434;2023-09-19T04:24:49;99106.81;;;19.53;100.00
33280;BME280;20403;43.114;12.434;2023-09-19T04:27:14;99093.66;;;19.48;100.00
33280;BME280;20403;43.114;12.434;2023-09-19T04:29:40;99095.53;;;19.48;100.00
33280;BME280;20403;43.114;12.434;2023-09-19T04:32:07;99087.91;;;19.41;100.00
33280;BME280;20403;43.114;12.434;2023-09-19T04:34:33;99095.47;;;19.53;100.00
33280;BME280;20403;43.114;12.434;2023-09-19T04:36:59;99094.72;;;19.47;100.00
33280;BME280;20403;43.114;12.434;2023-09-19T04:39:26;99101.09;;;19.46;100.00
33280;BME280;20403;43.114;12.434;2023-09-19T04:41:52;99108.81;;;19.38;100.00
33280;BME280;20403;43.114;12.434;2023-09-19T04:44:18;99112.88;;;19.30;100.00
33280;BME280;20403;43.114;12.434;2023-09-19T04:46:44;99106.38;;;19.17;100.00
33280;BME280;20403;43.114;12.434;2023-09-19T04:49:10;99110.78;;;19.27;100.00
33280;BME280;20403;43.114;12.434;2023-09-19T04:51:36;99110.22;;;19.30;100.00
33280;BME280;20403;43.114;12.434;2023-09-19T04:54:02;99124.19;;;19.36;100.00
33280;BME280;20403;43.114;12.434;2023-09-19T04:56:28;99125.59;;;19.28;100.00
33280;BME280;20403;43.114;12.434;2023-09-19T04:59:00;99131.84;;;19.37;100.00
33280;BME280;20403;43.114;12.434;2023-09-19T05:01:25;99137.41;;;19.36;100.00
33280;BME280;20403;43.114;12.434;2023-09-19T05:03:52;99133.16;;;19.40;100.00
33280;BME280;20403;43.114;12.434;2023-09-19T05:06:20;99137.22;;;19.27;100.00
33280;BME280;20403;43.114;12.434;2023-09-19T05:08:47;99140.69;;;19.22;100.00
33280;BME280;20403;43.114;12.434;2023-09-19T05:11:19;99144.97;;;19.18;100.00
33280;BME280;20403;43.114;12.434;2023-09-19T05:13:45;99154.97;;;19.21;100.00
33280;BME280;20403;43.114;12.434;2023-09-19T05:16:10;99161.25;;;19.30;100.00
33280;BME280;20403;43.114;12.434;2023-09-19T05:18:36;99153.69;;;19.19;100.00
33280;BME280;20403;43.114;12.434;2023-09-19T05:21:02;99153.31;;;19.30;100.00
33280;BME280;20403;43.114;12.434;2023-09-19T05:23:27;99154.19;;;19.21;100.00
33280;BME280;20403;43.114;12.434;2023-09-19T05:25:53;99161.25;;;19.30;100.00
33280;BME280;20403;43.114;12.434;2023-09-19T05:28:20;99168.09;;;19.37;100.00
33280;BME280;20403;43.114;12.434;2023-09-19T05:30:45;99165.66;;;19.40;100.00
33280;BME280;20403;43.114;12.434;2023-09-19T05:33:11;99164.34;;;19.38;100.00
33280;BME280;20403;43.114;12.434;2023-09-19T05:35:37;99160.84;;;19.47;100.00
33280;BME280;20403;43.114;12.434;2023-09-19T05:38:05;99169.53;;;19.53;100.00
33280;BME280;20403;43.114;12.434;2023-09-19T05:40:34;99175.66;;;19.48;100.00
33280;BME280;20403;43.114;12.434;2023-09-19T05:43:00;99174.25;;;19.56;100.00
33280;BME280;20403;43.114;12.434;2023-09-19T05:45:26;99172.38;;;19.62;100.00
33280;BME280;20403;43.114;12.434;2023-09-19T05:47:53;99181.56;;;19.69;100.00
33280;BME280;20403;43.114;12.434;2023-09-19T05:50:29;99174.69;;;19.68;100.00
33280;BME280;20403;43.114;12.434;2023-09-19T05:52:54;99185.44;;;19.77;100.00
33280;BME280;20403;43.114;12.434;2023-09-19T05:55:21;99181.75;;;19.78;100.00
33280;BME280;20403;43.114;12.434;2023-09-19T05:57:50;99178.78;;;19.85;100.00
33280;BME280;20403;43.114;12.434;2023-09-19T06:00:20;99184.56;;;19.87;100.00
33280;BME280;20403;43.114;12.434;2023-09-19T06:02:54;99181.50;;;19.99;100.00
33280;BME280;20403;43.114;12.434;2023-09-19T06:05:21;99185.34;;;20.11;100.00
33280;BME280;20403;43.114;12.434;2023-09-19T06:07:46;99192.13;;;20.23;100.00
33280;BME280;20403;43.114;12.434;2023-09-19T06:10:12;99199.22;;;20.27;100.00
33280;BME280;20403;43.114;12.434;2023-09-19T06:12:44;99192.28;;;20.31;100.00
33280;BME280;20403;43.114;12.434;2023-09-19T06:15:11;99202.47;;;20.43;100.00
33280;BME280;20403;43.114;12.434;2023-09-19T06:17:49;99196.84;;;20.50;100.00
33280;BME280;20403;43.114;12.434;2023-09-19T06:20:15;99193.09;;;20.51;100.00
33280;BME280;20403;43.114;12.434;2023-09-19T06:22:42;99194.69;;;20.52;100.00
33280;BME280;20403;43.114;12.434;2023-09-19T06:25:12;99198.13;;;20.52;100.00
33280;BME280;20403;43.114;12.434;2023-09-19T06:27:39;99198.63;;;20.54;100.00
33280;BME280;20403;43.114;12.434;2023-09-19T06:30:08;99200.19;;;20.55;100.00
33280;BME280;20403;43.114;12.434;2023-09-19T06:32:34;99198.31;;;20.61;100.00
33280;BME280;20403;43.114;12.434;2023-09-19T06:34:59;99196.13;;;20.63;100.00
33280;BME280;20403;43.114;12.434;2023-09-19T06:37:27;99192.16;;;20.85;100.00
33280;BME280;20403;43.114;12.434;2023-09-19T06:39:53;99181.47;;;20.90;100.00
33280;BME280;20403;43.114;12.434;2023-09-19T06:42:19;99190.97;;;20.91;100.00
33280;BME280;20403;43.114;12.434;2023-09-19T06:44:44;99196.88;;;20.88;100.00
33280;BME280;20403;43.114;12.434;2023-09-19T06:47:10;99194.72;;;20.90;100.00
33280;BME280;20403;43.114;12.434;2023-09-19T06:49:36;99201.03;;;20.94;100.00
33280;BME280;20403;43.114;12.434;2023-09-19T06:52:01;99200.72;;;20.95;100.00
33280;BME280;20403;43.114;12.434;2023-09-19T06:54:27;99204.59;;;21.03;100.00
33280;BME280;20403;43.114;12.434;2023-09-19T06:56:58;99200.88;;;21.04;100.00
33280;BME280;20403;43.114;12.434;2023-09-19T06:59:24;99209.56;;;21.10;100.00
33280;BME280;20403;43.114;12.434;2023-09-19T07:01:49;99220.63;;;21.12;100.00
33280;BME280;20403;43.114;12.434;2023-09-19T07:04:16;99225.66;;;21.13;100.00
33280;BME280;20403;43.114;12.434;2023-09-19T07:06:42;99228.44;;;21.22;100.00
33280;BME280;20403;43.114;12.434;2023-09-19T07:09:08;99222.41;;;21.16;100.00
33280;BME280;20403;43.114;12.434;2023-09-19T07:11:34;99219.34;;;21.28;100.00
33280;BME280;20403;43.114;12.434;2023-09-19T07:13:59;99219.53;;;21.32;100.00
33280;BME280;20403;43.114;12.434;2023-09-19T07:16:28;99224.44;;;21.25;100.00
33280;BME280;20403;43.114;12.434;2023-09-19T07:18:55;99213.22;;;21.28;100.00
33280;BME280;20403;43.114;12.434;2023-09-19T07:21:22;99221.13;;;21.33;100.00
33280;BME280;20403;43.114;12.434;2023-09-19T07:23:48;99222.47;;;21.30;100.00
33280;BME280;20403;43.114;12.434;2023-09-19T07:26:13;99230.03;;;21.42;100.00
33280;BME280;20403;43.114;12.434;2023-09-19T07:28:39;99222.28;;;21.46;100.00
33280;BME280;20403;43.114;12.434;2023-09-19T07:31:04;99230.50;;;21.44;100.00
33280;BME280;20403;43.114;12.434;2023-09-19T07:33:30;99238.41;;;21.49;100.00
33280;BME280;20403;43.114;12.434;2023-09-19T07:35:56;99228.06;;;21.48;100.00
33280;BME280;20403;43.114;12.434;2023-09-19T07:38:22;99225.16;;;21.49;100.00
33280;BME280;20403;43.114;12.434;2023-09-19T07:40:48;99238.41;;;21.49;100.00
33280;BME280;20403;43.114;12.434;2023-09-19T07:43:13;99230.38;;;21.54;100.00
33280;BME280;20403;43.114;12.434;2023-09-19T07:45:39;99235.56;;;21.59;100.00
33280;BME280;20403;43.114;12.434;2023-09-19T07:48:05;99227.94;;;21.72;100.00
33280;BME280;20403;43.114;12.434;2023-09-19T07:50:34;99235.53;;;21.78;100.00
33280;BME280;20403;43.114;12.434;2023-09-19T07:53:02;99234.16;;;21.95;100.00
33280;BME280;20403;43.114;12.434;2023-09-19T07:55:30;99232.78;;;22.11;100.00
33280;BME280;20403;43.114;12.434;2023-09-19T07:57:55;99220.84;;;22.28;100.00
33280;BME280;20403;43.114;12.434;2023-09-19T08:00:21;99218.94;;;22.56;100.00
33280;BME280;20403;43.114;12.434;2023-09-19T08:02:47;99226.75;;;22.89;100.00
33280;BME280;20403;43.114;12.434;2023-09-19T08:05:17;99218.94;;;23.28;100.00
33280;BME280;20403;43.114;12.434;2023-09-19T08:07:45;99223.78;;;23.49;100.00
33280;BME280;20403;43.114;12.434;2023-09-19T08:10:14;99225.53;;;23.54;100.00
33280;BME280;20403;43.114;12.434;2023-09-19T08:12:42;99226.44;;;23.49;100.00
33280;BME280;20403;43.114;12.434;2023-09-19T08:17:39;99236.72;;;23.64;100.00
33280;BME280;20403;43.114;12.434;2023-09-19T08:20:05;99224.66;;;23.67;100.00
33280;BME280;20403;43.114;12.434;2023-09-19T08:22:30;99227.50;;;23.70;100.00
33280;BME280;20403;43.114;12.434;2023-09-19T08:24:57;99233.28;;;23.73;100.00
33280;BME280;20403;43.114;12.434;2023-09-19T08:27:23;99230.84;;;23.76;100.00
33280;BME280;20403;43.114;12.434;2023-09-19T08:29:52;99234.16;;;23.82;100.00
33280;BME280;20403;43.114;12.434;2023-09-19T08:32:18;99236.09;;;23.90;100.00
33280;BME280;20403;43.114;12.434;2023-09-19T08:34:49;99233.28;;;23.95;100.00
33280;BME280;20403;43.114;12.434;2023-09-19T08:37:14;99231.09;;;23.97;100.00
33280;BME280;20403;43.114;12.434;2023-09-19T08:39:40;99230.00;;;23.98;100.00
33280;BME280;20403;43.114;12.434;2023-09-19T08:42:06;99227.22;;;24.03;100.00
33280;BME280;20403;43.114;12.434;2023-09-19T08:44:36;99229.25;;;24.06;100.00
33280;BME280;20403;43.114;12.434;2023-09-19T08:47:14;99236.38;;;24.20;100.00
33280;BME280;20403;43.114;12.434;2023-09-19T08:50:03;99236.22;;;24.25;100.00
33280;BME280;20403;43.114;12.434;2023-09-19T08:52:47;99239.56;;;24.39;100.00
33280;BME280;20403;43.114;12.434;2023-09-19T08:55:17;99241.38;;;24.61;100.00
33280;BME280;20403;43.114;12.434;2023-09-19T08:57:49;99237.16;;;24.86;100.00
33280;BME280;20403;43.114;12.434;2023-09-19T09:00:15;99236.69;;;25.02;100.00
33280;BME280;20403;43.114;12.434;2023-09-19T09:02:46;99240.28;;;25.14;100.00
33280;BME280;20403;43.114;12.434;2023-09-19T09:05:12;99237.16;;;25.39;100.00
33280;BME280;20403;43.114;12.434;2023-09-19T09:07:40;99241.25;;;25.36;100.00
33280;BME280;20403;43.114;12.434;2023-09-19T09:10:06;99232.22;;;25.67;100.00
33280;BME280;20403;43.114;12.434;2023-09-19T09:12:32;99229.19;;;25.86;100.00
33280;BME280;20403;43.114;12.434;2023-09-19T09:15:00;99226.38;;;25.91;100.00
33280;BME280;20403;43.114;12.434;2023-09-19T09:17:26;99222.91;;;25.82;100.00
33280;BME280;20403;43.114;12.434;2023-09-19T09:19:54;99230.47;;;25.79;100.00
33280;BME280;20403;43.114;12.434;2023-09-19T09:22:21;99236.66;;;25.63;100.00
33280;BME280;20403;43.114;12.434;2023-09-19T09:24:54;99232.75;;;25.51;100.00
33280;BME280;20403;43.114;12.434;2023-09-19T09:27:23;99231.44;;;25.57;100.00
33280;BME280;20403;43.114;12.434;2023-09-19T09:29:50;99229.59;;;25.49;100.00
33280;BME280;20403;43.114;12.434;2023-09-19T09:32:20;99227.41;;;25.51;100.00
33280;BME280;20403;43.114;12.434;2023-09-19T09:34:50;99222.19;;;25.64;100.00
33280;BME280;20403;43.114;12.434;2023-09-19T09:37:17;99215.38;;;25.75;100.00
33280;BME280;20403;43.114;12.434;2023-09-19T09:39:56;99205.00;;;25.82;100.00
33280;BME280;20403;43.114;12.434;2023-09-19T09:45:23;99204.25;;;25.73;100.00
33280;BME280;20403;43.114;12.434;2023-09-19T09:48:01;99213.94;;;25.86;100.00
33280;BME280;20403;43.114;12.434;2023-09-19T09:50:33;99201.22;;;26.22;100.00
33280;BME280;20403;43.114;12.434;2023-09-19T09:53:31;99201.91;;;26.39;100.00
33280;BME280;20403;43.114;12.434;2023-09-19T09:56:07;99196.50;;;26.48;100.00
33280;BME280;20403;43.114;12.434;2023-09-19T09:58:49;99203.00;;;26.38;100.00
33280;BME280;20403;43.114;12.434;2023-09-19T10:01:16;99198.72;;;26.46;100.00
33280;BME280;20403;43.114;12.434;2023-09-19T10:03:43;99191.19;;;26.69;100.00
33280;BME280;20403;43.114;12.434;2023-09-19T10:06:15;99193.22;;;26.72;100.00
33280;BME280;20403;43.114;12.434;2023-09-19T10:11:30;99185.53;;;27.25;100.00
33280;BME280;20403;43.114;12.434;2023-09-19T10:13:58;99174.88;;;27.62;100.00
33280;BME280;20403;43.114;12.434;2023-09-19T10:16:29;99168.84;;;27.77;100.00
33280;BME280;20403;43.114;12.434;2023-09-19T10:18:58;99167.53;;;28.20;100.00
33280;BME280;20403;43.114;12.434;2023-09-19T10:21:28;99170.88;;;28.29;100.00
33280;BME280;20403;43.114;12.434;2023-09-19T10:23:58;99169.47;;;28.60;100.00
33280;BME280;20403;43.114;12.434;2023-09-19T10:26:26;99166.59;;;28.81;100.00
33280;BME280;20403;43.114;12.434;2023-09-19T10:28:57;99166.47;;;28.90;100.00
33280;BME280;20403;43.114;12.434;2023-09-19T10:31:26;99166.81;;;29.17;100.00
33280;BME280;20403;43.114;12.434;2023-09-19T10:33:53;99173.22;;;29.00;100.00
33280;BME280;20403;43.114;12.434;2023-09-19T10:36:24;99163.31;;;29.44;100.00
33280;BME280;20403;43.114;12.434;2023-09-19T10:38:52;99160.84;;;29.39;100.00
33280;BME280;20403;43.114;12.434;2023-09-19T10:41:22;99154.41;;;29.72;100.00
33280;BME280;20403;43.114;12.434;2023-09-19T10:43:48;99152.13;;;29.58;100.00
33280;BME280;20403;43.114;12.434;2023-09-19T10:46:14;99148.28;;;29.59;100.00
33280;BME280;20403;43.114;12.434;2023-09-19T10:48:41;99149.34;;;29.54;92.14
33280;BME280;20403;43.114;12.434;2023-09-19T10:51:11;99149.00;;;29.72;93.83
33280;BME280;20403;43.114;12.434;2023-09-19T10:56:09;99143.72;;;29.28;84.53
33280;BME280;20403;43.114;12.434;2023-09-19T10:58:42;99146.34;;;29.72;87.00
33280;BME280;20403;43.114;12.434;2023-09-19T11:01:10;99136.22;;;30.36;89.14
33280;BME280;20403;43.114;12.434;2023-09-19T11:03:43;99136.78;;;30.84;85.77
33280;BME280;20403;43.114;12.434;2023-09-19T11:06:11;99139.56;;;30.88;78.34
33280;BME280;20403;43.114;12.434;2023-09-19T11:08:59;99129.28;;;30.74;82.77
33280;BME280;20403;43.114;12.434;2023-09-19T11:14:16;99130.91;;;30.78;78.87
33280;BME280;20403;43.114;12.434;2023-09-19T11:30:46;99128.56;;;30.77;71.44
33280;BME280;20403;43.114;12.434;2023-09-19T11:36:10;99121.19;;;30.54;75.98
33280;BME280;20403;43.114;12.434;2023-09-19T11:49:17;99117.72;;;30.54;71.77
33280;BME280;20403;43.114;12.434;2023-09-19T11:51:50;99122.34;;;29.99;72.24
33280;BME280;20403;43.114;12.434;2023-09-19T11:54:17;99120.91;;;29.53;77.69
33280;BME280;20403;43.114;12.434;2023-09-19T11:56:51;99121.34;;;29.24;82.66
33280;BME280;20403;43.114;12.434;2023-09-19T11:59:28;99106.28;;;29.51;81.88
33280;BME280;20403;43.114;12.434;2023-09-19T12:02:00;99099.41;;;30.40;77.54
33280;BME280;20403;43.114;12.434;2023-09-19T12:04:40;99110.13;;;31.22;70.49
33280;BME280;20403;43.114;12.434;2023-09-19T12:07:09;99113.19;;;31.20;63.42
33280;BME280;20403;43.114;12.434;2023-09-19T12:12:26;99095.19;;;30.23;68.98
33280;BME280;20403;43.114;12.434;2023-09-19T12:14:56;99095.03;;;29.81;75.72
33280;BME280;20403;43.114;12.434;2023-09-19T12:17:40;99098.63;;;30.40;76.98
33280;BME280;20403;43.114;12.434;2023-09-19T12:20:08;99080.56;;;30.60;67.69
33280;BME280;20403;43.114;12.434;2023-09-19T12:22:44;99087.03;;;30.97;66.60
33280;BME280;20403;43.114;12.434;2023-09-19T12:25:10;99075.59;;;31.27;64.32
33280;BME280;20403;43.114;12.434;2023-09-19T12:30:09;99075.06;;;30.95;61.80
33280;BME280;20403;43.114;12.434;2023-09-19T12:32:36;99086.91;;;30.12;64.73
33280;BME280;20403;43.114;12.434;2023-09-19T12:35:01;99086.84;;;30.09;72.78
33280;BME280;20403;43.114;12.434;2023-09-19T12:37:32;99081.34;;;30.41;64.57
33280;BME280;20403;43.114;12.434;2023-09-19T12:40:08;99086.22;;;30.15;63.76
33280;BME280;20403;43.114;12.434;2023-09-19T12:42:44;99081.53;;;29.77;70.61
33280;BME280;20403;43.114;12.434;2023-09-19T12:45:10;99085.63;;;29.39;81.22
33280;BME280;20403;43.114;12.434;2023-09-19T12:47:38;99075.22;;;29.06;75.49
33280;BME280;20403;43.114;12.434;2023-09-19T12:50:07;99086.63;;;28.87;75.43
33280;BME280;20403;43.114;12.434;2023-09-19T12:52:51;99075.44;;;28.85;84.67
33280;BME280;20403;43.114;12.434;2023-09-19T12:58:11;99074.47;;;28.61;93.81
33280;BME280;20403;43.114;12.434;2023-09-19T13:00:44;99080.78;;;28.69;100.00
33280;BME280;20403;43.114;12.434;2023-09-19T13:06:07;99067.63;;;29.24;100.00
33280;BME280;20403;43.114;12.434;2023-09-19T13:08:37;99070.47;;;29.15;100.00
33280;BME280;20403;43.114;12.434;2023-09-19T13:13:40;99056.88;;;29.08;87.78
33280;BME280;20403;43.114;12.434;2023-09-19T13:16:06;99063.41;;;28.95;87.50
33280;BME280;20403;43.114;12.434;2023-09-19T13:18:43;99056.44;;;29.38;85.78
33280;BME280;20403;43.114;12.434;2023-09-19T13:21:11;99055.38;;;30.13;81.91
33280;BME280;20403;43.114;12.434;2023-09-19T13:23:53;99053.94;;;30.97;69.07
33280;BME280;20403;43.114;12.434;2023-09-19T13:26:27;99044.47;;;31.56;62.48
33280;BME280;20403;43.114;12.434;2023-09-19T13:28:54;99040.91;;;31.79;59.31
33280;BME280;20403;43.114;12.434;2023-09-19T13:31:20;99043.13;;;32.00;54.55
33280;BME280;20403;43.114;12.434;2023-09-19T13:33:47;99041.97;;;32.31;54.53
33280;BME280;20403;43.114;12.434;2023-09-19T13:36:13;99040.50;;;32.03;53.88
33280;BME280;20403;43.114;12.434;2023-09-19T13:38:41;99043.50;;;31.68;52.82
33280;BME280;20403;43.114;12.434;2023-09-19T13:41:10;99042.59;;;31.60;52.97
33280;BME280;20403;43.114;12.434;2023-09-19T13:43:38;99036.19;;;31.69;53.34
33280;BME280;20403;43.114;12.434;2023-09-19T13:46:04;99039.75;;;32.07;53.20
33280;BME280;20403;43.114;12.434;2023-09-19T13:48:33;99025.50;;;32.06;52.46
33280;BME280;20403;43.114;12.434;2023-09-19T13:51:01;99026.03;;;32.19;52.95
33280;BME280;20403;43.114;12.434;2023-09-19T13:53:27;99028.56;;;32.38;52.90
33280;BME280;20403;43.114;12.434;2023-09-19T13:55:52;99027.50;;;32.47;52.97
33280;BME280;20403;43.114;12.434;2023-09-19T13:58:18;99025.66;;;32.54;50.75
33280;BME280;20403;43.114;12.434;2023-09-19T14:00:43;99031.94;;;32.32;51.61
33280;BME280;20403;43.114;12.434;2023-09-19T14:03:08;99027.03;;;31.77;49.43
33280;BME280;20403;43.114;12.434;2023-09-19T14:05:36;99030.69;;;31.61;49.46